createdAt,value
2023-05-07T00:05:06.594Z,14.4
2023-05-07T00:11:00.659Z,14.4
2023-05-07T00:16:52.198Z,14.2
2023-05-07T00:22:45.394Z,14.3
2023-05-07T00:28:36.809Z,13.9
2023-05-07T00:34:28.242Z,14.2
2023-05-07T00:40:20.437Z,14.4
2023-05-07T00:46:11.980Z,14.3
2023-05-07T00:52:04.758Z,14.2
2023-05-07T00:57:56.969Z,14.2
2023-05-07T01:03:49.164Z,14.1
2023-05-07T01:09:43.547Z,14.4
2023-05-07T01:15:35.215Z,14.2
2023-05-07T01:21:28.418Z,14.3
2023-05-07T01:27:20.506Z,14.4
2023-05-07T01:33:12.063Z,14.4
2023-05-07T01:39:05.024Z,14.4
2023-05-07T01:44:56.683Z,14.1
2023-05-07T01:50:49.193Z,14.3
2023-05-07T01:56:40.633Z,14.1
2023-05-07T02:02:33.041Z,14.2
2023-05-07T02:08:25.404Z,14.3
2023-05-07T02:14:17.106Z,14.4
2023-05-07T02:20:09.990Z,14.5
2023-05-07T02:26:00.912Z,14.1
2023-05-07T02:31:49.822Z,13.7
2023-05-07T02:37:42.803Z,14.2
2023-05-07T02:43:34.554Z,14.3
2023-05-07T02:49:26.788Z,14.3
2023-05-07T02:55:18.692Z,14.3
2023-05-07T03:01:10.904Z,14.2
2023-05-07T03:07:02.829Z,14.2
2023-05-07T03:12:55.806Z,14.1
2023-05-07T03:18:47.957Z,14.2
2023-05-07T03:24:39.641Z,14.2
2023-05-07T03:30:31.195Z,14.1
2023-05-07T03:36:24.109Z,14.3
2023-05-07T03:42:17.929Z,14.2
2023-05-07T03:48:10.633Z,14.2
2023-05-07T03:54:02.326Z,14.1
2023-05-07T03:59:55.020Z,14
2023-05-07T04:05:46.540Z,14.2
2023-05-07T04:11:38.684Z,14.3
2023-05-07T04:17:31.286Z,14
2023-05-07T04:23:23.350Z,14
2023-05-07T04:29:15.554Z,14.3
2023-05-07T04:35:07.513Z,14.1
2023-05-07T04:40:59.396Z,14
2023-05-07T04:46:51.633Z,14.1
2023-05-07T04:52:43.785Z,14.2
2023-05-07T04:58:36.853Z,14.2
2023-05-07T05:04:29.376Z,14.2
2023-05-07T05:10:23.246Z,14.4
2023-05-07T05:16:15.242Z,14.5
2023-05-07T05:22:07.665Z,14.6
2023-05-07T05:27:59.370Z,14.7
2023-05-07T05:33:51.442Z,15
2023-05-07T05:39:43.392Z,15
2023-05-07T05:45:35.065Z,15
2023-05-07T05:51:28.420Z,15.2
2023-05-07T05:57:20.945Z,15.7
2023-05-07T06:03:16.255Z,16.3
2023-05-07T06:09:09.605Z,16.6
2023-05-07T06:15:01.966Z,16.4
2023-05-07T06:20:53.928Z,16.4
2023-05-07T06:26:46.140Z,16.5
2023-05-07T06:32:38.690Z,16.4
2023-05-07T06:38:31.741Z,16.4
2023-05-07T06:45:29.852Z,16.3
2023-05-07T06:51:20.327Z,16.5
2023-05-07T06:57:12.524Z,16.4
2023-05-07T07:03:03.947Z,16.5
2023-05-07T07:08:54.521Z,16.4
2023-05-07T07:14:44.046Z,16.5
2023-05-07T07:20:34.217Z,16.7
2023-05-07T07:26:23.717Z,16.6
2023-05-07T07:32:14.807Z,16.7
2023-05-07T07:38:07.650Z,16.8
2023-05-07T07:44:01.632Z,17.1
2023-05-07T07:49:56.017Z,17.3
2023-05-07T07:55:47.541Z,17.6
2023-05-07T08:01:44.297Z,17.7
2023-05-07T08:07:38.996Z,18.1
2023-05-07T08:13:31.636Z,18.4
2023-05-07T08:19:26.276Z,18.5
2023-05-07T08:25:17.737Z,18.6
2023-05-07T08:31:10.952Z,18.7
2023-05-07T08:37:04.526Z,18.8
2023-05-07T08:42:57.373Z,18.9
2023-05-07T08:48:51.499Z,19.1
2023-05-07T08:54:45.373Z,19.1
2023-05-07T09:00:37.244Z,19
2023-05-07T09:06:29.601Z,19.3
2023-05-07T09:12:21.103Z,19.5
2023-05-07T09:18:16.583Z,19.7
2023-05-07T09:24:08.502Z,19.8
2023-05-07T09:29:57.985Z,19.9
2023-05-07T09:35:49.423Z,20.2
2023-05-07T09:41:41.385Z,20.2
2023-05-07T09:47:36.941Z,20.2
2023-05-07T09:53:28.634Z,20.9
2023-05-07T09:59:23.480Z,20.9
2023-05-07T10:05:22.077Z,21.2
2023-05-07T10:11:18.198Z,21.1
2023-05-07T10:17:09.918Z,21.2
2023-05-07T10:23:02.440Z,21
2023-05-07T10:28:54.891Z,21.4
2023-05-07T10:34:46.361Z,21.8
2023-05-07T10:40:39.522Z,21.9
2023-05-07T10:46:35.999Z,22.2
2023-05-07T10:52:28.522Z,22.5
2023-05-07T10:58:31.127Z,22.5
2023-05-07T11:04:22.146Z,22.8
2023-05-07T11:10:14.511Z,23
2023-05-07T11:16:06.753Z,23.4
2023-05-07T11:21:59.384Z,23.6
2023-05-07T11:27:54.169Z,23.8
2023-05-07T11:33:46.179Z,23.5
2023-05-07T11:39:39.775Z,23.6
2023-05-07T11:45:31.607Z,23.9
2023-05-07T11:51:23.079Z,23.6
2023-05-07T11:57:15.486Z,24.1
2023-05-07T12:03:06.970Z,24
2023-05-07T12:08:59.222Z,24.1
2023-05-07T12:14:50.420Z,23.9
2023-05-07T12:20:42.361Z,24
2023-05-07T12:26:36.189Z,24
2023-05-07T12:32:28.085Z,24.1
2023-05-07T12:38:20.381Z,24.3
2023-05-07T12:44:11.849Z,24.4
2023-05-07T12:50:03.801Z,24.5
2023-05-07T12:55:55.802Z,24.1
2023-05-07T13:01:47.957Z,24
2023-05-07T13:07:40.034Z,23.3
2023-05-07T13:13:32.558Z,23.3
2023-05-07T13:19:24.999Z,23.3
2023-05-07T13:25:17.594Z,23.2
2023-05-07T13:31:09.653Z,23.2
2023-05-07T13:37:01.347Z,23.1
2023-05-07T13:42:56.440Z,23
2023-05-07T13:48:48.358Z,22.7
2023-05-07T13:54:40.019Z,22.4
2023-05-07T14:00:31.484Z,22.2
2023-05-07T14:06:23.531Z,22.2
2023-05-07T14:12:14.739Z,21.9
2023-05-07T14:18:08.627Z,21.4
2023-05-07T14:24:00.162Z,20.5
2023-05-07T14:29:51.881Z,20
2023-05-07T14:35:43.416Z,20.1
2023-05-07T14:41:35.072Z,19.8
2023-05-07T14:47:26.711Z,19.5
2023-05-07T14:53:17.849Z,19.2
2023-05-07T14:59:08.691Z,19.1
2023-05-07T15:04:59.268Z,18.9
2023-05-07T15:10:51.059Z,18.7
2023-05-07T15:16:42.656Z,18.6
2023-05-07T15:22:36.684Z,18.8
2023-05-07T15:28:28.853Z,18.3
2023-05-07T15:34:19.941Z,18.1
2023-05-07T15:40:10.981Z,17.1
2023-05-07T15:46:03.936Z,17.3
2023-05-07T15:51:56.420Z,17.3
2023-05-07T15:57:48.155Z,17.5
2023-05-07T16:03:40.671Z,17.6
2023-05-07T16:09:33.184Z,17.2
2023-05-07T16:15:25.725Z,17.6
2023-05-07T16:21:17.415Z,17.6
2023-05-07T16:27:09.092Z,17.6
2023-05-07T16:33:02.617Z,17.4
2023-05-07T16:38:55.295Z,17.6
2023-05-07T16:44:47.036Z,17.2
2023-05-07T16:50:40.071Z,17.1
2023-05-07T16:56:32.654Z,17.5
2023-05-07T17:02:28.237Z,17.7
2023-05-07T17:08:22.055Z,17.6
2023-05-07T17:14:17.431Z,17.6
2023-05-07T17:20:10.478Z,17.6
2023-05-07T17:26:02.662Z,17.6
2023-05-07T17:31:54.003Z,17.3
2023-05-07T17:37:47.360Z,17.4
2023-05-07T17:43:39.271Z,17.4
2023-05-07T17:49:31.415Z,17.1
2023-05-07T17:55:25.323Z,17.2
2023-05-07T18:01:19.366Z,17.5
2023-05-07T18:07:13.339Z,17.3
2023-05-07T18:13:04.711Z,17.1
2023-05-07T18:18:57.124Z,17.1
2023-05-07T18:24:49.041Z,17.2
2023-05-07T18:30:41.722Z,17.3
2023-05-07T18:36:34.189Z,17.2
2023-05-07T18:42:27.983Z,17.2
2023-05-07T18:48:27.828Z,17.1
2023-05-07T18:54:19.416Z,17.2
2023-05-07T19:00:11.020Z,17
2023-05-07T19:06:05.969Z,17.3
2023-05-07T19:11:59.732Z,17.1
2023-05-07T19:17:51.315Z,16.5
2023-05-07T19:23:44.181Z,16.4
2023-05-07T19:29:35.763Z,16.7
2023-05-07T19:35:28.264Z,16.9
2023-05-07T19:41:20.175Z,16.8
2023-05-07T19:47:12.270Z,16.7
2023-05-07T19:53:06.099Z,16.7
2023-05-07T19:58:58.849Z,16.9
2023-05-07T20:04:50.130Z,16.7
2023-05-07T20:10:41.020Z,16.8
2023-05-07T20:16:33.881Z,16.6
2023-05-07T20:22:26.330Z,16.5
2023-05-07T20:28:17.803Z,16.4
2023-05-07T20:34:09.193Z,16.3
2023-05-07T20:40:02.254Z,16.4
2023-05-07T20:45:53.050Z,16.5
2023-05-07T20:51:46.240Z,16.6
2023-05-07T20:57:38.621Z,16.4
2023-05-07T21:03:28.995Z,16.5
2023-05-07T21:09:20.520Z,16.5
2023-05-07T21:15:11.892Z,16.4
2023-05-07T21:21:02.384Z,16.6
2023-05-07T21:26:56.404Z,16.5
2023-05-07T21:32:48.763Z,16.6
2023-05-07T21:38:41.235Z,16.6
2023-05-07T21:44:32.410Z,16.5
2023-05-07T21:50:24.825Z,16.4
2023-05-07T21:56:16.106Z,16.5
2023-05-07T22:02:08.093Z,16.6
2023-05-07T22:08:00.053Z,16.5
2023-05-07T22:13:51.292Z,16.5
2023-05-07T22:19:42.561Z,16.5
2023-05-07T22:25:34.474Z,16.4
2023-05-07T22:31:26.704Z,16.3
2023-05-07T22:37:20.427Z,16.4
2023-05-07T22:43:15.420Z,16.4
2023-05-07T22:49:06.841Z,16.3
2023-05-07T22:54:58.772Z,16.3
2023-05-07T23:00:48.763Z,16.5
2023-05-07T23:06:40.890Z,16.3
2023-05-07T23:12:33.270Z,16.3
2023-05-07T23:18:24.715Z,16.2
2023-05-07T23:24:18.356Z,16.2
2023-05-07T23:30:10.247Z,16
2023-05-07T23:36:03.954Z,16.3
2023-05-07T23:41:54.691Z,15.9
2023-05-07T23:47:46.924Z,15.7
2023-05-07T23:53:37.803Z,16.1
2023-05-07T23:59:30.612Z,16.2
